All the aircraft services you might need!

MRO Profile: Corporate Jet Solutions

AVIATION INTERNATIONAL NEWS » APRIL 2014

By  DAVID A. LOMBARDO

April 4, 2014, 12:25 AM

Corporate Jet Solutions (CJS) is a maintenance, repair and overhaul facility that operates in conjunction with the company’s FBO, Dyenamic Aviation Services (DAS), named after founder and President Tony Dye. Located on Brooksville-Tampa Bay Airport (BKV), the 11.6-acre complex has its own fuel farm with jet-A and avgas fuel trucks and operates the airport’s only self-serve 24-hour avgas and 100LL station. It also has access to the airport’s closed runway adjacent to the facility, providing a significant amount of outdoor space for aircraft staging and parking.  

Fuel Prices:

Weather

[source: ADDS]
METAR
KBKV 192253Z AUTO 05004KT 10SM -RA BKN110 22/20 A2997 RMK AO2 SLP146 P0001 T02220200 =
TAF
SR / SS: 04:08 / 15:50 UTC (TPA 2014-09-19)

Navigation

  • Elevation: 69.6 ft.
    Latitude: 28-28.554510N
    Longitude: 082-28.236815W
    Runway: 9/27 7002 x 150 ft. / 2134 x 46 m
    Lighted, Concrete
    Runway: 3/21 5015 x 150 ft. / 1529 x 46 m
    Lighted, Concrete
    Location:the approach end of runway 9 on the south side

Communication

  • Unicom: 122.95
    FSS: SAINT PETERSBURG FLIGHT SERVICE STATION
    BROOKSVILLE TOWER: 118.55 [0700-2200]
    TAMPA APPROACH: 125.3 119.9
    CLEARANCE DELIVERY: 119.125(IFR)